createdAt,value
2022-09-23T00:01:08.923Z,8.98
2022-09-23T00:03:38.336Z,8.93
2022-09-23T00:06:11.724Z,8.94
2022-09-23T00:08:38.813Z,8.91
2022-09-23T00:11:10.607Z,8.92
2022-09-23T00:13:39.416Z,8.93
2022-09-23T00:16:08.128Z,8.89
2022-09-23T00:18:34.801Z,8.92
2022-09-23T00:21:06.239Z,8.87
2022-09-23T00:23:33.344Z,8.83
2022-09-23T00:26:01.731Z,8.81
2022-09-23T00:28:28.873Z,8.75
2022-09-23T00:30:55.273Z,8.76
2022-09-23T00:33:21.817Z,8.77
2022-09-23T00:35:48.563Z,8.75
2022-09-23T00:38:15.113Z,8.70
2022-09-23T00:40:46.127Z,8.61
2022-09-23T00:43:14.748Z,8.62
2022-09-23T00:45:46.246Z,8.65
2022-09-23T00:48:20.409Z,8.67
2022-09-23T00:50:54.167Z,8.64
2022-09-23T00:53:23.786Z,8.62
2022-09-23T00:55:54.643Z,8.63
2022-09-23T00:58:24.714Z,8.58
2022-09-23T01:00:51.177Z,8.55
2022-09-23T01:03:19.622Z,8.58
2022-09-23T01:05:46.998Z,8.54
2022-09-23T01:08:15.257Z,8.55
2022-09-23T01:11:10.201Z,8.47
2022-09-23T01:14:03.263Z,8.41
2022-09-23T01:16:58.239Z,8.37
2022-09-23T01:19:59.794Z,8.32
2022-09-23T01:22:44.171Z,8.31
2022-09-23T01:25:40.780Z,8.32
2022-09-23T01:28:22.289Z,8.26
2022-09-23T01:31:06.819Z,8.15
2022-09-23T01:34:03.197Z,8.11
2022-09-23T01:36:42.835Z,8.16
2022-09-23T01:39:44.402Z,8.23
2022-09-23T01:42:22.542Z,8.26
2022-09-23T01:44:56.229Z,8.16
2022-09-23T01:47:33.271Z,8.01
2022-09-23T01:50:29.491Z,7.94
2022-09-23T01:53:02.502Z,7.97
2022-09-23T01:55:36.360Z,8.00
2022-09-23T01:58:13.272Z,8.04
2022-09-23T02:00:48.741Z,8.04
2022-09-23T02:03:28.580Z,8.08
2022-09-23T02:06:34.180Z,7.97
2022-09-23T02:09:16.285Z,7.90
2022-09-23T02:11:48.066Z,7.87
2022-09-23T02:14:22.952Z,7.88
2022-09-23T02:16:52.272Z,7.91
2022-09-23T02:19:32.189Z,7.92
2022-09-23T02:22:08.210Z,7.92
2022-09-23T02:24:38.369Z,7.86
2022-09-23T02:27:14.440Z,7.86
2022-09-23T02:30:02.637Z,7.83
2022-09-23T02:32:41.306Z,7.82
2022-09-23T02:35:32.955Z,7.78
2022-09-23T02:38:05.682Z,7.74
2022-09-23T02:40:53.294Z,7.75
2022-09-23T02:43:33.843Z,7.74
2022-09-23T02:46:00.825Z,7.68
2022-09-23T02:48:33.957Z,7.66
2022-09-23T02:51:02.312Z,7.65
2022-09-23T02:53:30.128Z,7.67
2022-09-23T02:55:56.694Z,7.65
2022-09-23T02:58:23.194Z,7.57
2022-09-23T03:01:26.036Z,7.52
2022-09-23T03:03:58.364Z,7.57
2022-09-23T03:06:45.531Z,7.54
2022-09-23T03:09:33.833Z,7.49
2022-09-23T03:12:18.410Z,7.45
2022-09-23T03:15:00.445Z,7.43
2022-09-23T03:17:37.521Z,7.39
2022-09-23T03:20:15.398Z,7.37
2022-09-23T03:22:49.568Z,7.39
2022-09-23T03:25:23.889Z,7.43
2022-09-23T03:27:51.425Z,7.41
2022-09-23T03:30:18.395Z,7.42
2022-09-23T03:32:46.308Z,7.42
2022-09-23T03:35:14.017Z,7.39
2022-09-23T03:37:53.921Z,7.40
2022-09-23T03:40:42.887Z,7.44
2022-09-23T03:43:12.664Z,7.46
2022-09-23T03:45:40.105Z,7.40
2022-09-23T03:48:07.802Z,7.36
2022-09-23T03:50:35.667Z,7.39
2022-09-23T03:53:02.005Z,7.47
2022-09-23T03:55:28.476Z,7.50
2022-09-23T03:57:55.620Z,7.53
2022-09-23T04:00:22.134Z,7.53
2022-09-23T04:02:49.776Z,7.52
2022-09-23T04:05:16.510Z,7.48
2022-09-23T04:07:42.951Z,7.44
2022-09-23T04:10:10.414Z,7.45
2022-09-23T04:12:37.630Z,7.41
2022-09-23T04:15:04.626Z,7.38
2022-09-23T04:17:30.979Z,7.38
2022-09-23T04:19:57.337Z,7.37
2022-09-23T04:22:23.739Z,7.40
2022-09-23T04:24:50.100Z,7.43
2022-09-23T04:27:16.769Z,7.46
2022-09-23T04:29:43.186Z,7.48
2022-09-23T04:32:10.149Z,7.47
2022-09-23T04:34:36.512Z,7.42
2022-09-23T04:37:03.084Z,7.45
2022-09-23T04:39:29.462Z,7.50
2022-09-23T04:41:55.800Z,7.53
2022-09-23T04:44:22.172Z,7.55
2022-09-23T04:46:49.198Z,7.58
2022-09-23T04:49:16.125Z,7.62
2022-09-23T04:51:43.486Z,7.59
2022-09-23T04:54:11.766Z,7.60
2022-09-23T04:56:38.322Z,7.66
2022-09-23T04:59:04.908Z,7.73
2022-09-23T05:01:34.434Z,7.78
2022-09-23T05:04:03.507Z,7.84
2022-09-23T05:06:31.493Z,7.88
2022-09-23T05:08:59.432Z,7.91
2022-09-23T05:11:26.463Z,7.96
2022-09-23T05:13:54.285Z,7.96
2022-09-23T05:16:23.125Z,7.93
2022-09-23T05:18:51.147Z,7.96
2022-09-23T05:21:19.939Z,8.03
2022-09-23T05:23:54.073Z,8.01
2022-09-23T05:26:21.945Z,7.99
2022-09-23T05:28:48.507Z,8.01
2022-09-23T05:31:20.642Z,8.04
2022-09-23T05:33:52.970Z,8.10
2022-09-23T05:36:21.532Z,8.14
2022-09-23T05:38:49.823Z,8.16
2022-09-23T05:41:18.431Z,8.16
2022-09-23T05:43:45.117Z,8.27
2022-09-23T05:46:14.445Z,8.33
2022-09-23T05:48:42.188Z,8.36
2022-09-23T05:51:13.097Z,8.41
2022-09-23T05:53:40.169Z,8.47
2022-09-23T05:56:07.245Z,8.48
2022-09-23T05:58:33.825Z,8.54
2022-09-23T06:01:00.195Z,8.55
2022-09-23T06:03:26.770Z,8.56
2022-09-23T06:05:54.338Z,8.64
2022-09-23T06:08:21.795Z,8.67
2022-09-23T06:10:53.570Z,8.70
2022-09-23T06:13:20.830Z,8.75
2022-09-23T06:15:47.247Z,8.81
2022-09-23T06:18:13.731Z,8.83
2022-09-23T06:20:40.171Z,8.88
2022-09-23T06:23:10.508Z,8.95
2022-09-23T06:25:40.710Z,9.01
2022-09-23T06:28:10.730Z,9.07
2022-09-23T06:30:37.227Z,9.13
2022-09-23T06:33:03.618Z,9.20
2022-09-23T06:35:32.441Z,9.24
2022-09-23T06:37:59.137Z,9.27
2022-09-23T06:40:25.680Z,9.33
2022-09-23T06:42:59.941Z,9.44
2022-09-23T06:45:27.102Z,9.59
2022-09-23T06:47:56.280Z,9.71
2022-09-23T06:50:24.040Z,9.81
2022-09-23T06:52:58.329Z,9.90
2022-09-23T06:55:27.142Z,10.03
2022-09-23T06:57:58.275Z,10.15
2022-09-23T07:00:26.117Z,10.28
2022-09-23T07:02:54.711Z,10.40
2022-09-23T07:05:22.300Z,10.54
2022-09-23T07:07:49.007Z,10.67
2022-09-23T07:10:15.732Z,10.79
2022-09-23T07:12:42.441Z,10.96
2022-09-23T07:15:09.757Z,11.09
2022-09-23T07:17:36.136Z,11.22
2022-09-23T07:20:02.719Z,11.31
2022-09-23T07:22:29.122Z,11.43
2022-09-23T07:24:56.011Z,11.58
2022-09-23T07:27:26.842Z,11.68
2022-09-23T07:29:53.535Z,11.77
2022-09-23T07:32:21.880Z,11.87
2022-09-23T07:34:48.462Z,11.97
2022-09-23T07:37:16.462Z,12.09
2022-09-23T07:39:43.572Z,12.18
2022-09-23T07:42:12.368Z,12.29
2022-09-23T07:44:39.375Z,12.40
2022-09-23T07:47:06.206Z,12.51
2022-09-23T07:49:35.388Z,12.59
2022-09-23T07:52:02.089Z,12.68
2022-09-23T07:54:29.924Z,12.77
2022-09-23T07:56:56.850Z,12.82
2022-09-23T07:59:23.414Z,12.96
2022-09-23T08:01:52.610Z,13.09
2022-09-23T08:04:25.423Z,13.25
2022-09-23T08:06:54.308Z,13.36
2022-09-23T08:09:23.635Z,13.48
2022-09-23T08:11:50.657Z,13.64
2022-09-23T08:14:18.415Z,13.75
2022-09-23T08:16:45.655Z,13.86
2022-09-23T08:19:12.691Z,13.98
2022-09-23T08:21:40.319Z,14.08
2022-09-23T08:24:08.783Z,14.27
2022-09-23T08:26:35.339Z,14.39
2022-09-23T08:29:02.095Z,14.47
2022-09-23T08:31:28.490Z,14.58
2022-09-23T08:33:56.397Z,14.68
2022-09-23T08:36:23.513Z,14.83
2022-09-23T08:38:50.136Z,14.96
2022-09-23T08:41:28.671Z,15.04
2022-09-23T08:44:01.523Z,15.18
2022-09-23T08:46:34.674Z,15.31
2022-09-23T08:49:01.518Z,15.48
2022-09-23T08:51:41.123Z,15.58
2022-09-23T08:54:10.417Z,15.62
2022-09-23T08:56:38.803Z,15.70
2022-09-23T08:59:12.058Z,15.71
2022-09-23T09:01:45.203Z,15.70
2022-09-23T09:04:19.054Z,15.72
2022-09-23T09:10:06.281Z,15.77
2022-09-23T09:12:47.831Z,15.89
2022-09-23T09:15:24.641Z,15.98
2022-09-23T09:18:19.861Z,16.03
2022-09-23T09:21:13.874Z,16.04
2022-09-23T09:23:43.224Z,16.10
2022-09-23T09:26:21.422Z,16.14
2022-09-23T09:29:17.076Z,16.12
2022-09-23T09:31:50.591Z,16.22
2022-09-23T09:34:30.060Z,16.25
2022-09-23T09:37:23.309Z,16.26
2022-09-23T09:39:50.642Z,16.35
2022-09-23T09:42:25.094Z,16.38
2022-09-23T09:44:58.514Z,16.46
2022-09-23T09:47:38.885Z,16.49
2022-09-23T09:50:11.951Z,16.54
2022-09-23T09:52:38.312Z,16.70
2022-09-23T09:55:13.617Z,16.89
2022-09-23T09:57:44.055Z,17.00
2022-09-23T10:00:26.293Z,17.08
2022-09-23T10:03:01.117Z,17.28
2022-09-23T10:05:55.369Z,17.39
2022-09-23T10:08:29.331Z,17.43
2022-09-23T10:11:15.066Z,17.43
2022-09-23T10:13:42.284Z,17.58
2022-09-23T10:16:09.388Z,17.67
2022-09-23T10:18:47.750Z,17.73
2022-09-23T10:21:16.346Z,17.92
2022-09-23T10:23:55.558Z,18.02
2022-09-23T10:26:50.848Z,18.09
2022-09-23T10:29:29.035Z,18.07
2022-09-23T10:32:30.918Z,18.14
2022-09-23T10:34:58.618Z,18.12
2022-09-23T10:37:27.882Z,18.16
2022-09-23T10:40:13.039Z,18.23
2022-09-23T10:43:26.308Z,18.29
2022-09-23T10:46:14.004Z,18.31
2022-09-23T10:48:55.997Z,18.28
2022-09-23T10:51:39.542Z,18.26
2022-09-23T10:54:18.283Z,18.31
2022-09-23T10:57:36.020Z,18.39
2022-09-23T11:00:43.667Z,18.41
2022-09-23T11:03:27.094Z,18.47
2022-09-23T11:06:03.141Z,18.47
2022-09-23T11:08:59.156Z,18.48
2022-09-23T11:11:34.396Z,18.59
2022-09-23T11:14:16.751Z,18.66
2022-09-23T11:17:04.258Z,18.66
2022-09-23T11:19:55.912Z,18.64
2022-09-23T11:22:45.567Z,18.61
2022-09-23T11:25:43.234Z,18.71
2022-09-23T11:28:30.547Z,18.67
2022-09-23T11:31:26.943Z,18.62
2022-09-23T11:34:02.439Z,18.56
2022-09-23T11:36:34.617Z,18.64
2022-09-23T11:39:07.981Z,18.75
2022-09-23T11:41:37.956Z,18.92
2022-09-23T11:44:14.971Z,19.13
2022-09-23T11:46:50.025Z,19.21
2022-09-23T11:49:23.202Z,19.19
2022-09-23T11:52:19.690Z,19.31
2022-09-23T11:55:06.260Z,19.39
2022-09-23T11:57:54.303Z,19.47
2022-09-23T12:00:29.606Z,19.61
2022-09-23T12:03:17.777Z,19.66
2022-09-23T12:05:47.786Z,19.74
2022-09-23T12:08:27.166Z,19.74
2022-09-23T12:11:06.461Z,19.87
2022-09-23T12:13:41.642Z,20.07
2022-09-23T12:16:26.755Z,20.13
2022-09-23T12:18:56.147Z,20.06
2022-09-23T12:21:50.205Z,19.96
2022-09-23T12:24:36.252Z,19.80
2022-09-23T12:27:08.649Z,19.67
2022-09-23T12:29:36.435Z,19.64
2022-09-23T12:32:09.748Z,19.50
2022-09-23T12:34:48.989Z,19.49
2022-09-23T12:37:26.479Z,19.50
2022-09-23T12:39:54.288Z,19.40
2022-09-23T12:42:23.794Z,19.28
2022-09-23T12:44:51.864Z,19.33
2022-09-23T12:47:21.152Z,19.38
2022-09-23T12:49:48.518Z,19.30
2022-09-23T12:52:17.849Z,19.48
2022-09-23T12:54:49.779Z,19.46
2022-09-23T12:57:34.575Z,19.47
2022-09-23T13:00:09.473Z,19.52
2022-09-23T13:02:39.698Z,19.53
2022-09-23T13:05:41.808Z,19.52
2022-09-23T13:08:14.508Z,19.52
2022-09-23T13:10:56.376Z,19.51
2022-09-23T13:13:25.275Z,19.52
2022-09-23T13:15:53.481Z,19.55
2022-09-23T13:18:22.657Z,19.61
2022-09-23T13:20:56.747Z,19.64
2022-09-23T13:23:24.826Z,19.64
2022-09-23T13:25:54.350Z,19.68
2022-09-23T13:28:31.849Z,19.66
2022-09-23T13:30:59.001Z,19.34
2022-09-23T13:33:38.177Z,19.32
2022-09-23T13:36:11.983Z,19.38
2022-09-23T13:38:38.606Z,19.50
2022-09-23T13:41:14.487Z,19.51
2022-09-23T13:43:42.524Z,19.52
2022-09-23T13:46:31.187Z,19.58
2022-09-23T13:48:57.580Z,19.70
2022-09-23T13:51:30.040Z,19.85
2022-09-23T13:53:58.729Z,19.85
2022-09-23T13:56:27.985Z,19.91
2022-09-23T13:58:56.571Z,20.03
2022-09-23T14:01:33.796Z,20.13
2022-09-23T14:04:02.269Z,20.20
2022-09-23T14:06:35.972Z,20.20
2022-09-23T14:09:02.683Z,20.05
2022-09-23T14:11:33.084Z,20.11
2022-09-23T14:14:05.853Z,20.25
2022-09-23T14:16:35.579Z,20.28
2022-09-23T14:19:02.271Z,20.14
2022-09-23T14:21:36.176Z,20.13
2022-09-23T14:24:22.644Z,20.22
2022-09-23T14:26:53.314Z,20.24
2022-09-23T14:29:30.806Z,20.26
2022-09-23T14:32:03.823Z,20.22
2022-09-23T14:35:01.128Z,20.12
2022-09-23T14:37:57.524Z,20.07
2022-09-23T14:40:31.390Z,19.94
2022-09-23T14:43:08.731Z,19.86
2022-09-23T14:45:38.364Z,19.83
2022-09-23T14:48:17.496Z,19.79
2022-09-23T14:50:51.307Z,19.72
2022-09-23T14:53:23.779Z,19.58
2022-09-23T14:55:53.415Z,19.39
2022-09-23T14:58:25.510Z,19.30
2022-09-23T15:00:57.848Z,19.20
2022-09-23T15:03:24.347Z,19.05
2022-09-23T15:06:07.703Z,19.03
2022-09-23T15:08:35.705Z,19.01
2022-09-23T15:11:08.078Z,18.98
2022-09-23T15:13:39.639Z,18.99
2022-09-23T15:16:06.661Z,18.91
2022-09-23T15:18:38.603Z,18.77
2022-09-23T15:21:15.890Z,18.70
2022-09-23T15:23:48.012Z,18.68
2022-09-23T15:26:18.780Z,18.58
2022-09-23T15:28:45.584Z,18.54
2022-09-23T15:31:17.378Z,18.52
2022-09-23T15:33:44.692Z,18.46
2022-09-23T15:36:29.509Z,18.40
2022-09-23T15:39:01.098Z,18.38
2022-09-23T15:41:27.874Z,18.39
2022-09-23T15:43:56.305Z,18.37
2022-09-23T15:46:27.323Z,18.30
2022-09-23T15:49:04.600Z,18.24
2022-09-23T15:51:31.213Z,18.19
2022-09-23T15:53:57.771Z,18.21
2022-09-23T15:56:26.915Z,18.16
2022-09-23T15:58:53.295Z,18.14
2022-09-23T16:01:20.033Z,18.07
2022-09-23T16:03:46.450Z,18.02
2022-09-23T16:06:13.446Z,17.93
2022-09-23T16:08:42.158Z,17.92
2022-09-23T16:11:31.605Z,17.84
2022-09-23T16:14:01.240Z,17.82
2022-09-23T16:16:28.023Z,17.80
2022-09-23T16:18:54.728Z,17.77
2022-09-23T16:21:24.166Z,17.73
2022-09-23T16:23:51.380Z,17.69
2022-09-23T16:26:27.164Z,17.61
2022-09-23T16:28:55.428Z,17.57
2022-09-23T16:31:25.227Z,17.49
2022-09-23T16:33:53.011Z,17.40
2022-09-23T16:36:28.763Z,17.31
2022-09-23T16:38:55.715Z,17.25
2022-09-23T16:41:23.606Z,17.19
2022-09-23T16:43:53.533Z,17.11
2022-09-23T16:46:21.177Z,17.01
2022-09-23T16:48:52.313Z,17.00
2022-09-23T16:51:21.714Z,16.94
2022-09-23T16:53:49.654Z,16.89
2022-09-23T16:56:18.284Z,16.83
2022-09-23T16:58:44.909Z,16.75
2022-09-23T17:01:38.292Z,16.70
2022-09-23T17:04:05.226Z,16.64
2022-09-23T17:06:31.586Z,16.56
2022-09-23T17:08:57.998Z,16.47
2022-09-23T17:11:24.352Z,16.43
2022-09-23T17:13:51.558Z,16.33
2022-09-23T17:16:27.569Z,16.23
2022-09-23T17:18:55.390Z,16.22
2022-09-23T17:21:26.353Z,16.16
2022-09-23T17:23:54.238Z,16.08
2022-09-23T17:26:22.119Z,16.05
2022-09-23T17:28:49.397Z,15.99
2022-09-23T17:31:15.833Z,15.96
2022-09-23T17:33:42.584Z,15.91
2022-09-23T17:36:11.286Z,15.88
2022-09-23T17:38:41.310Z,15.88
2022-09-23T17:41:09.028Z,15.84
2022-09-23T17:43:36.136Z,15.80
2022-09-23T17:46:12.771Z,15.77
2022-09-23T17:48:41.343Z,15.73
2022-09-23T17:51:12.465Z,15.69
2022-09-23T17:53:40.041Z,15.62
2022-09-23T17:56:15.343Z,15.58
2022-09-23T17:58:42.878Z,15.56
2022-09-23T18:01:11.570Z,15.53
2022-09-23T18:03:38.701Z,15.52
2022-09-23T18:06:07.222Z,15.51
2022-09-23T18:08:33.633Z,15.49
2022-09-23T18:11:00.033Z,15.44
2022-09-23T18:13:26.490Z,15.44
2022-09-23T18:15:52.913Z,15.41
2022-09-23T18:18:19.275Z,15.36
2022-09-23T18:20:45.734Z,15.33
2022-09-23T18:23:12.179Z,15.33
2022-09-23T18:25:39.854Z,15.33
2022-09-23T18:28:06.542Z,15.30
2022-09-23T18:30:33.459Z,15.26
2022-09-23T18:32:59.916Z,15.26
2022-09-23T18:35:26.458Z,15.26
2022-09-23T18:37:52.918Z,15.26
2022-09-23T18:40:19.392Z,15.21
2022-09-23T18:42:45.876Z,15.19
2022-09-23T18:45:12.298Z,15.20
2022-09-23T18:47:57.273Z,15.17
2022-09-23T18:50:43.178Z,15.15
2022-09-23T18:53:10.204Z,15.15
2022-09-23T18:55:36.639Z,15.09
2022-09-23T18:58:03.469Z,15.06
2022-09-23T19:00:30.054Z,15.04
2022-09-23T19:02:56.545Z,15.04
2022-09-23T19:05:22.911Z,15.01
2022-09-23T19:07:49.281Z,14.97
2022-09-23T19:10:15.711Z,14.97
2022-09-23T19:12:42.117Z,14.96
2022-09-23T19:15:09.208Z,14.95
2022-09-23T19:17:35.731Z,14.96
2022-09-23T19:20:02.195Z,14.92
2022-09-23T19:22:30.346Z,14.88
2022-09-23T19:24:56.695Z,14.88
2022-09-23T19:27:23.414Z,14.87
2022-09-23T19:29:50.177Z,14.89
2022-09-23T19:32:16.679Z,14.88
2022-09-23T19:34:43.573Z,14.88
2022-09-23T19:37:10.052Z,14.85
2022-09-23T19:39:37.426Z,14.84
2022-09-23T19:42:03.962Z,14.84
2022-09-23T19:44:30.317Z,14.85
2022-09-23T19:46:57.573Z,14.86
2022-09-23T19:49:25.369Z,14.86
2022-09-23T19:51:52.869Z,14.86
2022-09-23T19:54:20.511Z,14.85
2022-09-23T19:56:48.697Z,14.85
2022-09-23T19:59:18.788Z,14.85
2022-09-23T20:01:45.376Z,14.83
2022-09-23T20:04:11.879Z,14.80
2022-09-23T20:06:38.781Z,14.81
2022-09-23T20:09:05.866Z,14.81
2022-09-23T20:11:33.374Z,14.85
2022-09-23T20:14:04.700Z,14.83
2022-09-23T20:16:35.902Z,14.82
2022-09-23T20:19:04.317Z,14.79
2022-09-23T20:21:31.385Z,14.75
2022-09-23T20:23:58.104Z,14.73
2022-09-23T20:26:43.329Z,14.73
2022-09-23T20:29:10.715Z,14.73
2022-09-23T20:31:37.496Z,14.74
2022-09-23T20:34:05.874Z,14.73
2022-09-23T20:36:33.111Z,14.71
2022-09-23T20:39:01.547Z,14.69
2022-09-23T20:41:29.728Z,14.66
2022-09-23T20:44:00.398Z,14.66
2022-09-23T20:46:27.023Z,14.65
2022-09-23T20:48:54.252Z,14.68
2022-09-23T20:51:20.859Z,14.69
2022-09-23T20:53:54.756Z,14.68
2022-09-23T20:56:21.646Z,14.67
2022-09-23T20:58:48.599Z,14.67
2022-09-23T21:01:15.679Z,14.64
2022-09-23T21:03:44.548Z,14.64
2022-09-23T21:06:13.881Z,14.63
2022-09-23T21:08:40.789Z,14.63
2022-09-23T21:11:10.122Z,14.65
2022-09-23T21:13:36.789Z,14.61
2022-09-23T21:16:03.795Z,14.60
2022-09-23T21:18:30.953Z,14.59
2022-09-23T21:20:59.198Z,14.57
2022-09-23T21:23:37.929Z,14.55
2022-09-23T21:26:07.394Z,14.55
2022-09-23T21:28:39.183Z,14.56
2022-09-23T21:31:09.106Z,14.56
2022-09-23T21:33:38.394Z,14.53
2022-09-23T21:36:06.821Z,14.52
2022-09-23T21:38:37.143Z,14.50
2022-09-23T21:41:09.919Z,14.46
2022-09-23T21:43:39.517Z,14.45
2022-09-23T21:46:20.116Z,14.46
2022-09-23T21:48:49.848Z,14.47
2022-09-23T21:51:21.298Z,14.40
2022-09-23T21:53:47.755Z,14.38
2022-09-23T21:56:20.882Z,14.36
2022-09-23T21:58:48.262Z,14.35
2022-09-23T22:01:25.779Z,14.33
2022-09-23T22:03:58.016Z,14.32
2022-09-23T22:06:27.337Z,14.31
2022-09-23T22:08:58.944Z,14.29
2022-09-23T22:11:46.137Z,14.28
2022-09-23T22:14:13.940Z,14.26
2022-09-23T22:16:41.692Z,14.22
2022-09-23T22:19:09.286Z,14.23
2022-09-23T22:21:37.979Z,14.23
2022-09-23T22:24:08.184Z,14.22
2022-09-23T22:26:40.334Z,14.22
2022-09-23T22:29:27.256Z,14.20
2022-09-23T22:32:12.659Z,14.19
2022-09-23T22:34:53.193Z,14.19
2022-09-23T22:37:25.417Z,14.19
2022-09-23T22:39:51.858Z,14.19
2022-09-23T22:42:21.091Z,14.19
2022-09-23T22:44:48.151Z,14.18
2022-09-23T22:47:15.553Z,14.18
2022-09-23T22:49:42.804Z,14.15
2022-09-23T22:52:11.133Z,14.16
2022-09-23T22:54:37.746Z,14.13
2022-09-23T22:57:06.069Z,14.12
2022-09-23T22:59:32.937Z,14.13
2022-09-23T23:02:02.344Z,14.15
2022-09-23T23:04:29.888Z,14.13
2022-09-23T23:06:58.470Z,14.11
2022-09-23T23:09:25.068Z,14.12
2022-09-23T23:11:51.434Z,14.14
2022-09-23T23:14:18.591Z,14.15
2022-09-23T23:16:46.066Z,14.14
2022-09-23T23:19:16.376Z,14.13
2022-09-23T23:21:44.620Z,14.12
2022-09-23T23:24:22.327Z,14.10
2022-09-23T23:26:49.766Z,14.11
2022-09-23T23:29:17.573Z,14.12
2022-09-23T23:31:44.353Z,14.16
2022-09-23T23:34:13.464Z,14.13
2022-09-23T23:36:40.293Z,14.14
2022-09-23T23:39:07.199Z,14.12
2022-09-23T23:41:33.817Z,14.13
2022-09-23T23:44:01.170Z,14.11
2022-09-23T23:46:30.389Z,14.12
2022-09-23T23:48:57.295Z,14.10
2022-09-23T23:51:27.718Z,14.11
2022-09-23T23:53:56.456Z,14.09
2022-09-23T23:56:24.452Z,14.10
2022-09-23T23:58:55.745Z,14.08
